createdAt,value
2019-05-18T00:00:59.939Z,9.13
2019-05-18T00:03:28.420Z,7.87
2019-05-18T00:05:56.821Z,8.10
2019-05-18T00:08:25.255Z,7.97
2019-05-18T00:10:53.648Z,8.07
2019-05-18T00:13:22.126Z,8.13
2019-05-18T00:15:50.551Z,7.90
2019-05-18T00:18:19.019Z,8.80
2019-05-18T00:20:47.424Z,7.80
2019-05-18T00:23:15.889Z,6.90
2019-05-18T00:25:44.376Z,6.93
2019-05-18T00:28:12.769Z,8.07
2019-05-18T00:30:41.193Z,7.60
2019-05-18T00:33:09.614Z,7.80
2019-05-18T00:35:38.049Z,7.90
2019-05-18T00:38:06.437Z,7.97
2019-05-18T00:40:34.917Z,7.60
2019-05-18T00:43:03.413Z,7.30
2019-05-18T00:45:31.828Z,8.17
2019-05-18T00:48:00.231Z,6.40
2019-05-18T00:50:28.627Z,6.70
2019-05-18T00:52:57.117Z,6.77
2019-05-18T00:55:25.525Z,7.37
2019-05-18T00:57:53.957Z,7.20
2019-05-18T01:00:22.615Z,6.60
2019-05-18T01:02:51.018Z,8.30
2019-05-18T01:05:19.466Z,7.57
2019-05-18T01:07:47.916Z,7.20
2019-05-18T01:10:16.562Z,7.50
2019-05-18T01:12:44.959Z,7.47
2019-05-18T01:15:13.982Z,7.30
2019-05-18T01:17:56.385Z,7.77
2019-05-18T01:20:12.865Z,7.30
2019-05-18T01:22:41.267Z,7.10
2019-05-18T01:25:09.843Z,7.10
2019-05-18T01:27:38.233Z,7.43
2019-05-18T01:30:08.003Z,7.30
2019-05-18T01:32:36.474Z,6.97
2019-05-18T01:35:08.402Z,6.60
2019-05-18T01:37:36.825Z,7.43
2019-05-18T01:40:06.956Z,6.80
2019-05-18T01:42:35.378Z,7.27
2019-05-18T01:45:16.271Z,7.00
2019-05-18T01:47:38.455Z,7.10
2019-05-18T01:50:08.042Z,7.30
2019-05-18T01:52:36.532Z,6.60
2019-05-18T01:55:06.849Z,7.13
2019-05-18T01:57:35.321Z,7.23
2019-05-18T02:00:05.886Z,6.73
2019-05-18T02:02:34.263Z,6.90
2019-05-18T02:05:02.896Z,7.27
2019-05-18T02:07:31.252Z,6.70
2019-05-18T02:09:59.648Z,6.50
2019-05-18T02:12:28.065Z,6.93
2019-05-18T02:14:56.530Z,7.80
2019-05-18T02:17:25.023Z,7.43
2019-05-18T02:19:53.425Z,6.40
2019-05-18T02:22:21.893Z,6.30
2019-05-18T02:24:50.310Z,6.63
2019-05-18T02:27:18.717Z,6.60
2019-05-18T02:29:47.231Z,6.67
2019-05-18T02:32:15.675Z,6.10
2019-05-18T02:34:44.074Z,6.80
2019-05-18T02:37:12.555Z,7.23
2019-05-18T02:39:40.969Z,7.50
2019-05-18T02:42:09.474Z,6.10
2019-05-18T02:44:37.918Z,6.77
2019-05-18T02:47:06.339Z,7.30
2019-05-18T02:49:34.759Z,7.30
2019-05-18T02:52:03.148Z,7.10
2019-05-18T02:54:31.598Z,6.83
2019-05-18T02:57:00.045Z,6.13
2019-05-18T02:59:28.429Z,6.90
2019-05-18T03:01:56.829Z,6.50
2019-05-18T03:04:25.306Z,6.00
2019-05-18T03:06:53.734Z,6.97
2019-05-18T03:09:22.266Z,6.57
2019-05-18T03:11:50.698Z,6.37
2019-05-18T03:14:19.208Z,6.60
2019-05-18T03:16:47.673Z,7.00
2019-05-18T03:19:16.224Z,6.43
2019-05-18T03:21:45.706Z,6.57
2019-05-18T03:24:14.184Z,6.90
2019-05-18T03:26:42.607Z,7.43
2019-05-18T03:29:10.993Z,6.63
2019-05-18T03:31:39.424Z,6.83
2019-05-18T03:34:07.896Z,6.70
2019-05-18T03:36:36.538Z,6.80
2019-05-18T03:39:06.176Z,7.03
2019-05-18T03:41:34.690Z,7.23
2019-05-18T03:44:03.184Z,6.73
2019-05-18T03:46:31.660Z,7.07
2019-05-18T03:49:00.056Z,6.50
2019-05-18T03:51:28.466Z,6.70
2019-05-18T03:53:56.876Z,6.50
2019-05-18T03:56:25.291Z,7.07
2019-05-18T03:58:53.713Z,7.00
2019-05-18T04:01:22.249Z,6.07
2019-05-18T04:03:50.715Z,6.70
2019-05-18T04:06:19.119Z,6.00
2019-05-18T04:08:47.568Z,6.93
2019-05-18T04:11:15.970Z,5.73
2019-05-18T04:13:44.365Z,6.93
2019-05-18T04:16:12.813Z,7.87
2019-05-18T04:18:41.199Z,6.37
2019-05-18T04:21:09.598Z,6.83
2019-05-18T04:23:38.016Z,6.47
2019-05-18T04:26:06.409Z,6.43
2019-05-18T04:28:34.832Z,6.50
2019-05-18T04:31:03.291Z,7.00
2019-05-18T04:33:31.750Z,7.53
2019-05-18T04:36:00.248Z,7.00
2019-05-18T04:38:28.669Z,6.90
2019-05-18T04:40:57.130Z,6.40
2019-05-18T04:43:25.560Z,7.40
2019-05-18T04:45:53.953Z,8.03
2019-05-18T04:48:22.405Z,7.03
2019-05-18T04:50:50.883Z,8.13
2019-05-18T04:53:19.279Z,7.10
2019-05-18T04:55:47.696Z,8.17
2019-05-18T04:58:16.203Z,7.57
2019-05-18T05:00:44.921Z,7.33
2019-05-18T05:03:13.442Z,7.73
2019-05-18T05:05:41.867Z,7.90
2019-05-18T05:08:10.585Z,7.43
2019-05-18T05:10:38.936Z,7.93
2019-05-18T05:13:07.372Z,7.70
2019-05-18T05:15:35.776Z,7.53
2019-05-18T05:18:04.260Z,7.50
2019-05-18T05:20:32.688Z,8.10
2019-05-18T05:23:01.103Z,8.23
2019-05-18T05:25:29.524Z,7.80
2019-05-18T05:27:57.952Z,7.87
2019-05-18T05:30:26.373Z,7.27
2019-05-18T05:32:54.840Z,7.90
2019-05-18T05:35:23.275Z,8.00
2019-05-18T05:37:51.672Z,8.03
2019-05-18T05:40:20.166Z,8.10
2019-05-18T05:42:48.661Z,8.20
2019-05-18T05:45:17.434Z,8.60
2019-05-18T05:47:45.868Z,7.47
2019-05-18T05:50:14.514Z,8.00
2019-05-18T05:52:43.059Z,8.30
2019-05-18T05:55:11.610Z,9.07
2019-05-18T05:57:40.085Z,9.03
2019-05-18T06:00:09.645Z,8.80
2019-05-18T06:02:38.053Z,9.20
2019-05-18T06:05:07.017Z,8.73
2019-05-18T06:07:35.689Z,7.80
2019-05-18T06:10:05.837Z,8.70
2019-05-18T06:12:34.257Z,9.00
2019-05-18T06:15:02.762Z,9.70
2019-05-18T06:17:31.153Z,9.47
2019-05-18T06:19:59.577Z,8.57
2019-05-18T06:22:27.998Z,9.13
2019-05-18T06:24:56.422Z,8.60
2019-05-18T06:27:24.830Z,8.73
2019-05-18T06:29:53.319Z,8.47
2019-05-18T06:32:21.806Z,8.30
2019-05-18T06:34:50.212Z,9.00
2019-05-18T06:37:18.632Z,9.13
2019-05-18T06:39:47.088Z,8.90
2019-05-18T06:42:15.514Z,9.67
2019-05-18T06:44:43.979Z,9.37
2019-05-18T06:47:12.446Z,9.73
2019-05-18T06:49:40.874Z,9.07
2019-05-18T06:52:09.279Z,9.13
2019-05-18T06:54:37.786Z,8.67
2019-05-18T06:57:07.145Z,9.20
2019-05-18T06:59:37.693Z,10.13
2019-05-18T07:02:06.111Z,9.70
2019-05-18T07:04:34.512Z,9.70
2019-05-18T07:07:02.929Z,9.37
2019-05-18T07:09:31.338Z,10.00
2019-05-18T07:11:59.798Z,10.00
2019-05-18T07:14:28.192Z,10.17
2019-05-18T07:16:56.599Z,9.33
2019-05-18T07:19:25.032Z,8.63
2019-05-18T07:21:53.460Z,9.20
2019-05-18T07:24:21.876Z,8.97
2019-05-18T07:26:50.285Z,7.80
2019-05-18T07:29:18.747Z,9.67
2019-05-18T07:31:47.184Z,12.00
2019-05-18T07:34:17.368Z,9.57
2019-05-18T07:36:45.845Z,8.03
2019-05-18T07:39:14.289Z,8.00
2019-05-18T07:41:46.900Z,8.47
2019-05-18T07:44:12.914Z,7.30
2019-05-18T07:46:41.332Z,8.17
2019-05-18T07:49:09.859Z,10.43
2019-05-18T07:51:38.364Z,9.03
2019-05-18T07:54:06.788Z,8.83
2019-05-18T07:56:35.272Z,10.40
2019-05-18T07:59:03.740Z,9.60
2019-05-18T08:01:32.177Z,8.30
2019-05-18T08:04:00.603Z,8.20
2019-05-18T08:06:29.009Z,9.63
2019-05-18T08:08:57.501Z,8.27
2019-05-18T08:11:25.916Z,8.80
2019-05-18T08:13:54.438Z,8.27
2019-05-18T08:16:22.886Z,8.67
2019-05-18T08:18:51.325Z,8.13
2019-05-18T08:21:19.743Z,9.80
2019-05-18T08:23:48.176Z,7.53
2019-05-18T08:26:16.614Z,8.97
2019-05-18T08:28:45.099Z,8.23
2019-05-18T08:31:13.591Z,8.77
2019-05-18T08:33:42.074Z,7.47
2019-05-18T08:36:10.552Z,7.93
2019-05-18T08:38:39.036Z,7.53
2019-05-18T08:41:07.596Z,8.90
2019-05-18T08:43:36.022Z,8.90
2019-05-18T08:46:04.504Z,7.90
2019-05-18T08:48:32.994Z,7.97
2019-05-18T08:51:01.424Z,7.50
2019-05-18T08:53:29.846Z,6.73
2019-05-18T08:55:58.245Z,7.60
2019-05-18T08:58:26.836Z,7.60
2019-05-18T09:00:55.293Z,13.70
2019-05-18T09:03:23.729Z,8.03
2019-05-18T09:05:52.126Z,7.07
2019-05-18T09:08:20.545Z,7.63
2019-05-18T09:10:49.063Z,7.13
2019-05-18T09:13:17.481Z,7.70
2019-05-18T09:15:45.881Z,7.10
2019-05-18T09:18:14.305Z,7.57
2019-05-18T09:20:42.736Z,6.50
2019-05-18T09:23:11.189Z,7.70
2019-05-18T09:25:39.593Z,7.33
2019-05-18T09:28:08.020Z,6.73
2019-05-18T09:30:36.548Z,6.90
2019-05-18T09:33:05.035Z,6.57
2019-05-18T09:35:33.446Z,6.00
2019-05-18T09:38:01.909Z,7.53
2019-05-18T09:40:30.368Z,7.40
2019-05-18T09:42:58.762Z,6.67
2019-05-18T09:45:27.294Z,7.10
2019-05-18T09:47:55.718Z,7.57
2019-05-18T09:50:24.213Z,7.10
2019-05-18T09:52:52.760Z,6.60
2019-05-18T09:55:21.317Z,6.93
2019-05-18T09:57:49.808Z,6.60
2019-05-18T10:00:19.673Z,6.53
2019-05-18T10:02:48.095Z,6.90
2019-05-18T10:05:16.654Z,6.70
2019-05-18T10:07:45.044Z,6.60
2019-05-18T10:10:14.191Z,6.47
2019-05-18T10:12:42.603Z,6.40
2019-05-18T10:15:11.406Z,6.07
2019-05-18T10:17:39.813Z,5.83
2019-05-18T10:20:09.280Z,6.40
2019-05-18T10:22:51.193Z,6.30
2019-05-18T10:25:08.049Z,6.37
2019-05-18T10:27:36.465Z,6.00
2019-05-18T10:30:06.988Z,7.30
2019-05-18T10:32:35.388Z,6.10
2019-05-18T10:35:05.457Z,6.10
2019-05-18T10:37:33.858Z,6.43
2019-05-18T10:40:02.280Z,5.63
2019-05-18T10:42:30.736Z,5.43
2019-05-18T10:44:59.174Z,5.40
2019-05-18T10:47:27.658Z,5.17
2019-05-18T10:49:56.237Z,5.03
2019-05-18T10:52:24.656Z,5.40
2019-05-18T10:54:53.051Z,4.93
2019-05-18T10:57:21.468Z,5.40
2019-05-18T10:59:49.878Z,5.20
2019-05-18T11:02:18.345Z,5.53
2019-05-18T11:04:46.757Z,6.10
2019-05-18T11:07:15.196Z,7.00
2019-05-18T11:09:43.616Z,6.10
2019-05-18T11:12:12.007Z,5.87
2019-05-18T11:14:40.430Z,4.80
2019-05-18T11:17:08.831Z,5.80
2019-05-18T11:19:37.249Z,5.73
2019-05-18T11:22:05.793Z,5.67
2019-05-18T11:24:34.188Z,6.30
2019-05-18T11:27:02.600Z,7.13
2019-05-18T11:29:31.002Z,6.70
2019-05-18T11:31:59.419Z,7.17
2019-05-18T11:34:27.821Z,6.50
2019-05-18T11:36:56.375Z,7.13
2019-05-18T11:39:24.944Z,6.40
2019-05-18T11:41:53.436Z,6.57
2019-05-18T11:44:21.936Z,6.90
2019-05-18T11:46:50.312Z,7.23
2019-05-18T11:49:18.745Z,6.17
2019-05-18T11:51:47.197Z,6.83
2019-05-18T11:54:15.618Z,6.60
2019-05-18T11:56:44.193Z,6.63
2019-05-18T11:59:15.619Z,6.43
2019-05-18T12:01:42.751Z,7.70
2019-05-18T12:04:11.246Z,7.73
2019-05-18T12:06:39.676Z,6.50
2019-05-18T12:09:08.218Z,5.30
2019-05-18T12:11:36.685Z,5.20
2019-05-18T12:14:05.234Z,5.07
2019-05-18T12:16:33.700Z,5.73
2019-05-18T12:19:02.120Z,4.80
2019-05-18T12:21:30.514Z,5.57
2019-05-18T12:24:14.158Z,4.40
2019-05-18T12:26:29.134Z,4.57
2019-05-18T12:28:57.551Z,4.90
2019-05-18T12:31:26.133Z,4.87
2019-05-18T12:33:54.544Z,4.30
2019-05-18T12:36:22.968Z,4.20
2019-05-18T12:38:51.365Z,4.47
2019-05-18T12:41:21.396Z,5.17
2019-05-18T12:43:49.957Z,4.17
2019-05-18T12:46:18.413Z,4.63
2019-05-18T12:48:46.834Z,6.63
2019-05-18T12:51:15.248Z,4.53
2019-05-18T12:53:43.652Z,4.57
2019-05-18T12:56:12.116Z,4.10
2019-05-18T12:58:40.523Z,3.97
2019-05-18T13:01:09.005Z,3.80
2019-05-18T13:03:37.397Z,3.80
2019-05-18T13:06:06.865Z,3.63
2019-05-18T13:08:35.245Z,3.67
2019-05-18T13:11:03.750Z,3.10
2019-05-18T13:13:32.137Z,3.20
2019-05-18T13:16:00.532Z,2.87
2019-05-18T13:18:29.021Z,2.53
2019-05-18T13:20:57.480Z,2.93
2019-05-18T13:23:25.876Z,3.43
2019-05-18T13:25:54.332Z,3.90
2019-05-18T13:28:22.809Z,4.00
2019-05-18T13:30:51.281Z,3.90
2019-05-18T13:33:19.687Z,3.30
2019-05-18T13:35:48.112Z,3.13
2019-05-18T13:38:16.522Z,3.07
2019-05-18T13:40:45.006Z,3.20
2019-05-18T13:43:13.501Z,3.00
2019-05-18T13:45:41.932Z,3.13
2019-05-18T13:48:10.341Z,3.30
2019-05-18T13:50:38.872Z,2.93
2019-05-18T13:53:07.340Z,2.67
2019-05-18T13:55:35.755Z,2.97
2019-05-18T13:58:04.223Z,2.67
2019-05-18T14:00:32.817Z,2.63
2019-05-18T14:03:01.377Z,2.27
2019-05-18T14:05:29.900Z,2.90
2019-05-18T14:07:58.393Z,2.47
2019-05-18T14:10:26.823Z,2.37
2019-05-18T14:12:55.308Z,3.07
2019-05-18T14:15:23.794Z,3.20
2019-05-18T14:17:52.338Z,3.00
2019-05-18T14:20:20.894Z,3.23
2019-05-18T14:22:49.351Z,2.73
2019-05-18T14:25:20.304Z,3.10
2019-05-18T14:27:49.622Z,3.33
2019-05-18T14:30:19.200Z,4.47
2019-05-18T14:32:47.747Z,3.27
2019-05-18T14:35:16.654Z,5.50
2019-05-18T14:37:45.146Z,2.90
2019-05-18T14:40:13.967Z,2.70
2019-05-18T14:42:42.448Z,2.87
2019-05-18T14:45:11.224Z,2.60
2019-05-18T14:47:39.672Z,4.77
2019-05-18T14:50:08.746Z,3.50
2019-05-18T14:52:37.179Z,3.33
2019-05-18T14:55:06.560Z,3.50
2019-05-18T14:57:35.116Z,3.10
2019-05-18T15:00:04.401Z,3.60
2019-05-18T15:02:32.881Z,3.17
2019-05-18T15:05:01.987Z,3.50
2019-05-18T15:07:30.801Z,2.90
2019-05-18T15:09:59.378Z,3.17
2019-05-18T15:12:27.892Z,3.20
2019-05-18T15:14:56.352Z,3.87
2019-05-18T15:17:24.767Z,4.20
2019-05-18T15:19:53.275Z,4.43
2019-05-18T15:22:21.672Z,3.90
2019-05-18T15:24:50.152Z,3.43
2019-05-18T15:27:18.650Z,3.57
2019-05-18T15:29:47.044Z,3.80
2019-05-18T15:32:15.480Z,2.90
2019-05-18T15:34:43.973Z,2.20
2019-05-18T15:37:12.454Z,2.33
2019-05-18T15:39:40.873Z,2.33
2019-05-18T15:42:09.465Z,2.60
2019-05-18T15:44:37.929Z,2.90
2019-05-18T15:47:06.331Z,2.60
2019-05-18T15:49:34.838Z,2.80
2019-05-18T15:52:03.339Z,2.60
2019-05-18T15:54:31.826Z,2.60
2019-05-18T15:57:00.327Z,4.03
2019-05-18T15:59:28.800Z,3.13
2019-05-18T16:01:57.275Z,2.70
2019-05-18T16:04:25.697Z,3.20
2019-05-18T16:06:54.190Z,2.83
2019-05-18T16:09:22.616Z,2.67
2019-05-18T16:11:51.045Z,3.23
2019-05-18T16:14:19.486Z,2.37
2019-05-18T16:16:48.228Z,2.90
2019-05-18T16:19:16.812Z,2.53
2019-05-18T16:21:45.271Z,2.37
2019-05-18T16:24:13.696Z,2.50
2019-05-18T16:26:42.180Z,2.40
2019-05-18T16:29:10.684Z,2.53
2019-05-18T16:31:39.096Z,2.33
2019-05-18T16:34:07.537Z,3.10
2019-05-18T16:36:35.935Z,2.77
2019-05-18T16:39:06.155Z,2.90
2019-05-18T16:41:34.636Z,2.97
2019-05-18T16:44:03.215Z,2.50
2019-05-18T16:46:31.642Z,2.60
2019-05-18T16:49:01.567Z,2.43
2019-05-18T16:51:29.949Z,2.60
2019-05-18T16:53:58.471Z,2.17
2019-05-18T16:56:34.877Z,2.53
2019-05-18T16:58:57.001Z,4.30
2019-05-18T17:01:25.572Z,2.83
2019-05-18T17:03:54.037Z,2.87
2019-05-18T17:06:22.456Z,2.90
2019-05-18T17:08:50.910Z,2.90
2019-05-18T17:11:19.358Z,2.80
2019-05-18T17:13:47.826Z,4.03
2019-05-18T17:16:16.241Z,5.30
2019-05-18T17:18:44.670Z,2.63
2019-05-18T17:21:13.087Z,2.63
2019-05-18T17:23:41.543Z,2.70
2019-05-18T17:26:10.080Z,2.83
2019-05-18T17:28:38.518Z,2.70
2019-05-18T17:31:07.106Z,3.23
2019-05-18T17:33:35.524Z,2.13
2019-05-18T17:36:04.004Z,2.50
2019-05-18T17:38:32.455Z,2.43
2019-05-18T17:41:01.000Z,2.60
2019-05-18T17:43:29.536Z,3.50
2019-05-18T17:45:58.004Z,3.03
2019-05-18T17:48:26.901Z,3.00
2019-05-18T17:50:55.347Z,2.90
2019-05-18T17:53:23.772Z,2.60
2019-05-18T17:55:52.324Z,2.67
2019-05-18T17:58:20.805Z,3.00
2019-05-18T18:00:49.272Z,2.47
2019-05-18T18:03:17.774Z,2.87
2019-05-18T18:05:46.311Z,2.80
2019-05-18T18:08:14.747Z,3.27
2019-05-18T18:10:43.703Z,2.53
2019-05-18T18:13:12.206Z,3.40
2019-05-18T18:15:40.650Z,3.70
2019-05-18T18:18:09.087Z,3.40
2019-05-18T18:20:37.481Z,3.73
2019-05-18T18:23:05.937Z,3.80
2019-05-18T18:25:34.669Z,3.47
2019-05-18T18:28:03.190Z,3.17
2019-05-18T18:30:31.686Z,2.70
2019-05-18T18:33:00.111Z,2.57
2019-05-18T18:35:28.531Z,2.83
2019-05-18T18:37:56.951Z,2.90
2019-05-18T18:40:25.524Z,4.07
2019-05-18T18:42:53.988Z,4.30
2019-05-18T18:45:22.552Z,3.10
2019-05-18T18:47:50.954Z,2.77
2019-05-18T18:50:19.496Z,2.80
2019-05-18T18:52:48.001Z,2.40
2019-05-18T18:55:16.550Z,3.20
2019-05-18T18:57:45.087Z,2.70
2019-05-18T19:00:14.054Z,3.20
2019-05-18T19:02:42.549Z,3.47
2019-05-18T19:05:11.415Z,3.10
2019-05-18T19:07:39.857Z,4.30
2019-05-18T19:10:08.714Z,3.27
2019-05-18T19:12:37.299Z,4.47
2019-05-18T19:15:09.803Z,3.50
2019-05-18T19:17:38.228Z,3.63
2019-05-18T19:20:07.793Z,3.50
2019-05-18T19:22:36.222Z,4.60
2019-05-18T19:25:06.283Z,4.23
2019-05-18T19:27:34.839Z,2.90
2019-05-18T19:30:09.360Z,4.30
2019-05-18T19:32:34.650Z,4.13
2019-05-18T19:35:03.091Z,3.10
2019-05-18T19:37:31.535Z,3.83
2019-05-18T19:39:59.992Z,3.40
2019-05-18T19:42:28.519Z,3.47
2019-05-18T19:44:56.929Z,2.50
2019-05-18T19:47:25.456Z,2.87
2019-05-18T19:49:53.979Z,3.20
2019-05-18T19:52:22.435Z,7.03
2019-05-18T19:54:50.875Z,3.57
2019-05-18T19:57:19.297Z,2.93
2019-05-18T19:59:47.755Z,4.67
2019-05-18T20:02:18.507Z,3.13
2019-05-18T20:05:05.623Z,5.83
2019-05-18T20:07:16.635Z,5.83
2019-05-18T20:09:45.107Z,8.60
2019-05-18T20:12:13.667Z,4.30
2019-05-18T20:14:42.147Z,4.27
2019-05-18T20:17:10.674Z,4.00
2019-05-18T20:19:39.951Z,4.03
2019-05-18T20:22:08.595Z,5.03
2019-05-18T20:24:36.996Z,8.40
2019-05-18T20:27:05.444Z,11.67
2019-05-18T20:29:33.843Z,12.50
2019-05-18T20:32:02.284Z,14.00
2019-05-18T20:34:30.773Z,10.93
2019-05-18T20:36:59.197Z,10.57
2019-05-18T20:39:27.646Z,10.43
2019-05-18T20:41:56.067Z,8.27
2019-05-18T20:44:24.584Z,7.77
2019-05-18T20:46:52.999Z,6.03
2019-05-18T20:49:21.421Z,8.00
2019-05-18T20:51:49.863Z,8.13
2019-05-18T20:54:18.257Z,7.33
2019-05-18T20:56:46.693Z,8.10
2019-05-18T20:59:15.179Z,6.70
2019-05-18T21:01:43.704Z,7.30
2019-05-18T21:04:12.175Z,10.30
2019-05-18T21:06:40.628Z,9.50
2019-05-18T21:09:09.103Z,9.63
2019-05-18T21:11:37.585Z,10.00
2019-05-18T21:14:06.071Z,8.43
2019-05-18T21:16:34.562Z,9.80
2019-05-18T21:19:03.080Z,11.43
2019-05-18T21:21:31.496Z,10.30
2019-05-18T21:23:59.952Z,10.50
2019-05-18T21:26:28.425Z,9.10
2019-05-18T21:29:00.698Z,8.03
2019-05-18T21:31:27.036Z,8.30
2019-05-18T21:33:55.574Z,10.33
2019-05-18T21:36:24.004Z,11.53
2019-05-18T21:38:52.478Z,10.97
2019-05-18T21:41:20.965Z,12.23
2019-05-18T21:43:49.395Z,12.43
2019-05-18T21:46:17.797Z,12.20
2019-05-18T21:48:46.228Z,12.43
2019-05-18T21:51:14.627Z,12.23
2019-05-18T21:53:43.034Z,12.03
2019-05-18T21:56:11.516Z,12.90
2019-05-18T21:58:39.926Z,12.53
2019-05-18T22:01:08.504Z,13.47
2019-05-18T22:03:36.916Z,13.40
2019-05-18T22:06:06.269Z,11.63
2019-05-18T22:08:34.734Z,12.70
2019-05-18T22:11:03.264Z,11.30
2019-05-18T22:13:31.691Z,12.53
2019-05-18T22:16:00.115Z,13.30
2019-05-18T22:18:28.541Z,14.50
2019-05-18T22:20:57.013Z,13.60
2019-05-18T22:23:25.603Z,12.90
2019-05-18T22:25:56.831Z,13.57
2019-05-18T22:28:24.222Z,11.70
2019-05-18T22:30:52.630Z,12.27
2019-05-18T22:33:21.067Z,10.90
2019-05-18T22:35:49.560Z,10.57
2019-05-18T22:38:18.091Z,10.83
2019-05-18T22:40:46.519Z,11.43
2019-05-18T22:43:14.987Z,12.90
2019-05-18T22:45:43.420Z,14.07
2019-05-18T22:48:11.978Z,14.93
2019-05-18T22:50:40.489Z,19.23
2019-05-18T22:53:09.016Z,13.30
2019-05-18T22:55:37.486Z,12.60
2019-05-18T22:58:05.880Z,14.50
2019-05-18T23:00:34.365Z,14.50
2019-05-18T23:03:02.878Z,15.07
2019-05-18T23:05:31.303Z,14.10
2019-05-18T23:07:59.732Z,14.37
2019-05-18T23:10:31.405Z,14.17
2019-05-18T23:12:59.822Z,14.50
2019-05-18T23:15:28.273Z,15.40
2019-05-18T23:17:56.698Z,15.90
2019-05-18T23:20:25.160Z,14.80
2019-05-18T23:22:53.582Z,14.83
2019-05-18T23:25:21.997Z,14.43
2019-05-18T23:27:50.425Z,14.60
2019-05-18T23:30:18.906Z,15.50
2019-05-18T23:32:50.353Z,15.10
2019-05-18T23:35:17.549Z,16.03
2019-05-18T23:37:45.970Z,15.93
2019-05-18T23:40:14.918Z,14.40
2019-05-18T23:42:43.310Z,14.03
2019-05-18T23:45:12.006Z,14.90
2019-05-18T23:47:40.429Z,15.67
2019-05-18T23:50:09.100Z,15.57
2019-05-18T23:52:37.505Z,16.00
2019-05-18T23:55:07.257Z,15.50
2019-05-18T23:57:35.692Z,17.17
